Time;durP1;ratioP1;P1;durP2;ratioP2;P2;SDS_P1;SDS_P2;PMS_P1;PMS_P2;Temp;Humidity;BMP_temperature;BMP_pressure;BME280_temperature;BME280_humidity;BME280_pressure;Samples;Min_cycle;Max_cycle;Signal;HPM_P1;HPM_P2
2023/06/25 00:00:37;;;;;;;5.50;4.60;;;18.10;99.90;;;;;;5042917;28;20232;-80
2023/06/25 00:03:03;;;;;;;4.70;4.30;;;18.10;99.90;;;;;;5055241;28;20172;-79
2023/06/25 00:05:31;;;;;;;5.67;4.70;;;18.20;99.90;;;;;;5057544;28;20177;-80
2023/06/25 00:07:58;;;;;;;4.33;4.03;;;18.20;99.90;;;;;;5038399;28;20211;-80
2023/06/25 00:10:23;;;;;;;6.33;4.20;;;18.20;99.90;;;;;;5048273;28;20172;-80
2023/06/25 00:12:49;;;;;;;4.93;4.53;;;18.20;99.90;;;;;;5041977;28;20188;-78
2023/06/25 00:15:15;;;;;;;4.83;4.00;;;18.20;99.90;;;;;;5040065;28;20165;-78
2023/06/25 00:17:47;;;;;;;4.17;3.87;;;18.20;99.90;;;;;;5039324;28;20211;-79
2023/06/25 00:20:16;;;;;;;4.93;4.53;;;18.30;99.90;;;;;;5050408;28;20175;-78
2023/06/25 00:22:44;;;;;;;5.03;4.53;;;18.30;99.90;;;;;;5050136;28;20240;-80
2023/06/25 00:25:09;;;;;;;4.93;4.50;;;18.40;99.90;;;;;;5068236;28;20168;-80
2023/06/25 00:27:35;;;;;;;5.20;4.70;;;18.30;99.90;;;;;;5069827;28;20243;-79
2023/06/25 00:30:02;;;;;;;4.73;4.43;;;18.30;99.90;;;;;;5070707;28;20176;-79
2023/06/25 00:32:28;;;;;;;7.47;4.37;;;18.30;99.90;;;;;;5080038;28;20148;-79
2023/06/25 00:34:57;;;;;;;5.07;4.60;;;18.20;99.90;;;;;;5079794;28;20183;-78
2023/06/25 00:37:23;;;;;;;4.63;4.23;;;18.10;99.90;;;;;;5065918;28;20183;-78
2023/06/25 00:39:50;;;;;;;5.80;4.73;;;18.10;99.90;;;;;;5054212;28;20203;-78
2023/06/25 00:42:16;;;;;;;4.37;4.07;;;18.00;99.90;;;;;;5059451;28;20168;-81
2023/06/25 00:44:43;;;;;;;4.80;4.40;;;18.00;99.90;;;;;;5065723;28;20218;-78
2023/06/25 00:47:12;;;;;;;4.07;3.73;;;17.90;99.90;;;;;;5069914;28;20201;-78
2023/06/25 00:49:46;;;;;;;5.80;4.87;;;17.90;99.90;;;;;;5063012;28;20171;-77
2023/06/25 00:52:13;;;;;;;4.87;4.53;;;17.80;99.90;;;;;;5058809;28;20183;-78
2023/06/25 00:54:44;;;;;;;3.97;3.70;;;17.70;99.90;;;;;;5055830;28;20219;-77
2023/06/25 00:57:10;;;;;;;4.60;4.30;;;17.70;99.90;;;;;;5056523;28;20181;-78
2023/06/25 00:59:39;;;;;;;5.93;4.97;;;17.70;99.90;;;;;;5056241;28;20267;-79
2023/06/25 01:02:25;;;;;;;4.80;4.40;;;17.60;99.90;;;;;;5056088;28;20260;-78
2023/06/25 01:05:13;;;;;;;4.60;4.23;;;17.50;99.90;;;;;;5055369;28;20191;-79
2023/06/25 01:07:43;;;;;;;4.37;4.00;;;17.40;99.90;;;;;;5056044;28;20210;-79
2023/06/25 01:10:10;;;;;;;5.07;4.57;;;17.40;99.90;;;;;;5055551;28;20171;-80
2023/06/25 01:12:37;;;;;;;8.07;4.50;;;17.40;99.90;;;;;;5055717;28;20234;-79
2023/06/25 01:15:04;;;;;;;5.37;4.20;;;17.40;99.90;;;;;;5055472;28;20526;-80
2023/06/25 01:17:30;;;;;;;4.20;3.90;;;17.50;99.90;;;;;;5037456;28;20546;-79
2023/06/25 01:19:56;;;;;;;5.37;4.47;;;17.50;99.90;;;;;;5065957;28;20209;-81
2023/06/25 01:22:29;;;;;;;4.60;4.30;;;17.50;99.90;;;;;;5062308;28;20253;-79
2023/06/25 01:24:56;;;;;;;4.73;4.23;;;17.40;99.90;;;;;;5055321;28;20195;-79
2023/06/25 01:27:22;;;;;;;5.57;4.70;;;17.40;99.90;;;;;;5055489;28;20168;-80
2023/06/25 01:29:51;;;;;;;6.13;4.83;;;17.30;99.90;;;;;;5055186;28;20179;-81
2023/06/25 01:32:18;;;;;;;6.83;4.90;;;17.20;99.90;;;;;;5054597;28;20180;-78
2023/06/25 01:34:44;;;;;;;6.20;5.03;;;17.10;99.90;;;;;;5061561;28;20263;-77
2023/06/25 01:37:11;;;;;;;4.87;4.47;;;17.00;99.90;;;;;;5060179;28;20176;-79
2023/06/25 01:39:37;;;;;;;5.23;4.73;;;17.10;99.90;;;;;;5055276;28;20183;-79
2023/06/25 01:42:04;;;;;;;4.53;4.23;;;17.10;99.90;;;;;;5037397;28;20199;-80
2023/06/25 01:44:31;;;;;;;5.93;4.73;;;17.00;99.90;;;;;;5076799;28;20156;-80
2023/06/25 01:46:58;;;;;;;5.20;4.70;;;17.00;99.90;;;;;;5057333;28;20312;-79
2023/06/25 01:49:25;;;;;;;5.83;4.40;;;16.90;99.90;;;;;;5054981;28;20244;-79
2023/06/25 01:51:51;;;;;;;5.47;4.93;;;16.90;99.90;;;;;;5040788;28;20172;-81
2023/06/25 01:54:16;;;;;;;7.23;5.87;;;16.80;99.90;;;;;;5071189;28;20538;-79
2023/06/25 01:56:42;;;;;;;5.23;4.57;;;16.80;99.90;;;;;;5056751;28;20182;-79
2023/06/25 01:59:09;;;;;;;5.03;4.53;;;16.70;99.90;;;;;;5054750;28;20207;-78
2023/06/25 02:01:35;;;;;;;5.10;4.70;;;16.70;99.90;;;;;;5036477;28;20233;-81
2023/06/25 02:04:00;;;;;;;5.03;4.30;;;16.70;99.90;;;;;;5053683;28;20180;-79
2023/06/25 02:06:26;;;;;;;4.73;4.33;;;16.70;99.90;;;;;;5036362;28;20207;-79
2023/06/25 02:08:52;;;;;;;5.27;4.87;;;16.60;99.90;;;;;;5054421;28;20212;-80
2023/06/25 02:11:18;;;;;;;5.20;4.70;;;16.50;99.90;;;;;;5057066;28;20176;-81
2023/06/25 02:13:43;;;;;;;4.83;4.47;;;16.50;99.90;;;;;;5055577;28;20632;-80
2023/06/25 02:16:09;;;;;;;7.63;4.70;;;16.50;99.90;;;;;;5054773;28;20173;-79
2023/06/25 02:18:36;;;;;;;5.20;4.33;;;16.50;99.90;;;;;;5036591;28;20566;-79
2023/06/25 02:21:02;;;;;;;4.63;4.33;;;16.40;99.90;;;;;;5054643;28;20168;-80
2023/06/25 02:23:28;;;;;;;5.13;4.73;;;16.40;99.90;;;;;;5039230;28;20208;-81
2023/06/25 02:25:54;;;;;;;5.13;4.73;;;16.40;99.90;;;;;;5060845;28;20176;-80
2023/06/25 02:28:20;;;;;;;5.07;4.67;;;16.50;99.90;;;;;;5043343;28;20187;-79
2023/06/25 02:30:46;;;;;;;5.50;4.70;;;16.50;99.90;;;;;;5073878;28;20168;-81
2023/06/25 02:33:12;;;;;;;5.23;4.77;;;16.40;99.90;;;;;;5068603;28;20177;-78
2023/06/25 02:35:37;;;;;;;5.07;4.57;;;16.30;99.90;;;;;;5054903;28;20183;-80
2023/06/25 02:38:03;;;;;;;5.33;4.93;;;16.30;99.90;;;;;;5054024;28;20615;-80
2023/06/25 02:40:29;;;;;;;5.80;5.00;;;16.30;99.90;;;;;;5053758;28;20256;-79
2023/06/25 02:42:56;;;;;;;6.00;4.77;;;16.30;99.90;;;;;;5053834;28;20253;-79
2023/06/25 02:45:22;;;;;;;5.80;5.27;;;16.20;99.90;;;;;;5053579;28;20218;-78
2023/06/25 02:47:48;;;;;;;5.57;5.10;;;16.30;99.90;;;;;;5053411;28;20259;-79
2023/06/25 02:50:15;;;;;;;5.50;5.03;;;16.30;99.90;;;;;;5053647;28;20176;-77
2023/06/25 02:52:41;;;;;;;6.13;4.63;;;16.20;99.90;;;;;;5053381;28;20590;-79
2023/06/25 02:55:07;;;;;;;4.63;4.23;;;16.20;99.90;;;;;;5053085;28;20228;-78
2023/06/25 02:57:33;;;;;;;4.87;4.47;;;16.10;99.90;;;;;;5053221;28;20655;-79
2023/06/25 02:59:59;;;;;;;4.70;4.30;;;16.00;99.90;;;;;;5035607;28;20183;-80
2023/06/25 03:02:26;;;;;;;4.97;4.33;;;16.00;99.90;;;;;;5035315;28;20178;-80
2023/06/25 03:04:52;;;;;;;4.60;4.20;;;16.00;99.90;;;;;;5052920;28;20172;-80
2023/06/25 03:07:18;;;;;;;4.30;4.00;;;16.00;99.90;;;;;;5054000;28;20535;-80
2023/06/25 03:09:44;;;;;;;4.60;4.13;;;16.10;99.90;;;;;;5065300;28;20175;-79
2023/06/25 03:12:10;;;;;;;4.57;4.20;;;16.20;99.90;;;;;;5072582;28;20172;-78
2023/06/25 03:14:37;;;;;;;4.77;4.33;;;16.20;99.90;;;;;;5067925;28;20225;-79
2023/06/25 03:17:04;;;;;;;4.77;4.37;;;16.10;99.90;;;;;;5061822;28;20218;-81
2023/06/25 03:19:30;;;;;;;5.23;4.77;;;16.20;99.90;;;;;;5053311;28;20227;-82
2023/06/25 03:21:56;;;;;;;4.63;4.27;;;16.10;99.90;;;;;;5055839;28;20168;-81
2023/06/25 03:24:22;;;;;;;4.43;4.13;;;15.90;99.90;;;;;;5075343;28;20164;-78
2023/06/25 03:26:48;;;;;;;5.70;4.60;;;15.90;99.90;;;;;;5038129;28;20532;-79
2023/06/25 03:29:14;;;;;;;5.10;4.70;;;16.00;99.90;;;;;;5053277;28;20172;-79
2023/06/25 03:31:39;;;;;;;5.30;4.50;;;16.00;99.90;;;;;;5052832;28;20177;-78
2023/06/25 03:34:05;;;;;;;5.20;4.80;;;16.00;99.90;;;;;;5052899;28;20698;-80
2023/06/25 03:36:32;;;;;;;4.87;4.30;;;15.90;99.90;;;;;;5035297;28;20227;-80
2023/06/25 03:38:58;;;;;;;6.60;4.43;;;15.80;99.90;;;;;;5052733;28;20203;-80
2023/06/25 03:41:24;;;;;;;5.00;4.60;;;15.70;99.90;;;;;;5053046;28;20509;-79
2023/06/25 03:43:50;;;;;;;5.03;4.63;;;15.50;99.90;;;;;;5052762;28;20169;-79
2023/06/25 03:46:16;;;;;;;4.90;4.50;;;15.60;99.90;;;;;;5052884;28;20175;-78
2023/06/25 03:48:43;;;;;;;4.90;4.20;;;15.60;99.90;;;;;;5053259;28;20180;-80
2023/06/25 03:51:12;;;;;;;4.57;4.27;;;15.70;99.90;;;;;;5056985;28;20184;-76
2023/06/25 03:53:41;;;;;;;5.30;4.90;;;15.70;99.90;;;;;;5036415;28;20204;-80
2023/06/25 03:56:07;;;;;;;5.00;4.60;;;15.70;99.90;;;;;;5055919;28;20635;-79
2023/06/25 03:58:36;;;;;;;4.80;4.40;;;15.70;99.90;;;;;;5055370;28;20241;-80
2023/06/25 04:01:03;;;;;;;6.07;4.73;;;15.80;99.90;;;;;;5054317;28;20168;-79
2023/06/25 04:03:29;;;;;;;5.03;4.63;;;15.80;99.90;;;;;;5057954;28;20172;-79
2023/06/25 04:05:55;;;;;;;4.90;4.50;;;15.90;99.90;;;;;;5061668;28;20279;-79
2023/06/25 04:08:20;;;;;;;5.23;4.77;;;15.90;99.90;;;;;;5059311;28;20175;-80
2023/06/25 04:10:46;;;;;;;5.37;4.50;;;16.00;99.90;;;;;;5053265;28;20175;-80
2023/06/25 04:13:12;;;;;;;4.67;4.27;;;16.00;99.90;;;;;;5056491;28;20274;-78
2023/06/25 04:15:38;;;;;;;7.20;4.97;;;16.10;99.90;;;;;;5052501;28;20246;-80
2023/06/25 04:18:04;;;;;;;5.63;5.10;;;16.20;99.90;;;;;;5052567;28;20218;-79
2023/06/25 04:20:31;;;;;;;4.67;4.27;;;16.10;99.90;;;;;;5052574;28;20167;-80
2023/06/25 04:22:57;;;;;;;7.77;4.67;;;16.20;99.90;;;;;;5034326;28;20187;-80
2023/06/25 04:25:23;;;;;;;4.40;4.10;;;16.20;99.90;;;;;;5052496;28;20172;-80
2023/06/25 04:27:49;;;;;;;4.90;4.50;;;16.20;99.90;;;;;;5056194;28;20263;-79
2023/06/25 04:30:15;;;;;;;5.10;4.70;;;16.30;99.90;;;;;;5056157;28;20175;-79
2023/06/25 04:32:41;;;;;;;4.73;4.43;;;16.40;99.90;;;;;;5038277;28;20176;-78
2023/06/25 04:35:07;;;;;;;4.90;4.40;;;16.40;99.90;;;;;;5037961;28;20709;-80
2023/06/25 04:37:32;;;;;;;5.20;4.70;;;16.40;99.90;;;;;;5055661;28;20175;-78
2023/06/25 04:40:00;;;;;;;5.47;4.97;;;16.50;99.90;;;;;;5056102;28;20299;-79
2023/06/25 04:42:26;;;;;;;5.50;5.10;;;16.50;99.90;;;;;;5055707;28;20167;-80
2023/06/25 04:44:52;;;;;;;6.03;4.80;;;16.60;99.90;;;;;;5055703;28;20170;-78
2023/06/25 04:47:18;;;;;;;4.80;4.40;;;16.50;99.90;;;;;;5039032;28;20176;-80
2023/06/25 04:49:44;;;;;;;4.53;4.13;;;16.70;99.90;;;;;;5063175;28;20227;-79
2023/06/25 04:52:17;;;;;;;4.67;4.27;;;16.70;99.90;;;;;;5069948;28;20215;-78
2023/06/25 04:54:42;;;;;;;4.47;4.10;;;16.80;99.90;;;;;;5055850;28;20216;-79
2023/06/25 04:57:09;;;;;;;4.40;4.10;;;16.80;99.90;;;;;;5037705;28;20601;-81
2023/06/25 04:59:35;;;;;;;6.23;4.33;;;16.90;99.90;;;;;;5055518;28;20211;-81
2023/06/25 05:02:01;;;;;;;4.90;4.50;;;17.10;99.90;;;;;;5067342;28;20173;-79
2023/06/25 05:04:27;;;;;;;4.67;4.30;;;17.20;99.90;;;;;;5075917;28;20281;-81
2023/06/25 05:06:52;;;;;;;4.93;4.33;;;17.30;99.90;;;;;;5024792;28;20172;-80
2023/06/25 05:09:18;;;;;;;4.70;4.30;;;17.30;99.90;;;;;;5036457;28;20178;-79
2023/06/25 05:11:44;;;;;;;5.97;4.77;;;17.40;99.90;;;;;;5035485;28;20628;-80
2023/06/25 05:14:09;;;;;;;4.70;4.30;;;17.40;99.90;;;;;;5035497;28;20507;-79
2023/06/25 05:16:35;;;;;;;4.97;4.23;;;17.50;99.90;;;;;;5035393;28;20234;-79
2023/06/25 05:19:01;;;;;;;4.70;4.40;;;17.60;99.90;;;;;;5017692;28;20215;-78
2023/06/25 05:21:27;;;;;;;4.60;4.20;;;17.60;99.90;;;;;;5035321;28;20217;-78
2023/06/25 05:24:05;;;;;;;4.20;3.90;;;17.70;99.90;;;;;;5017209;28;20180;-80
2023/06/25 05:26:31;;;;;;;5.00;4.50;;;17.70;99.90;;;;;;5017500;28;20279;-77
2023/06/25 05:28:57;;;;;;;4.77;4.40;;;17.80;99.90;;;;;;5035353;28;20222;-79
2023/06/25 05:31:23;;;;;;;4.80;4.37;;;18.00;99.90;;;;;;5034994;28;20177;-78
2023/06/25 05:33:49;;;;;;;4.67;4.27;;;18.00;99.90;;;;;;5034960;28;20210;-78
2023/06/25 05:36:16;;;;;;;4.73;4.40;;;18.10;99.90;;;;;;5018889;28;20194;-79
2023/06/25 05:38:42;;;;;;;4.23;3.93;;;18.20;99.90;;;;;;5034961;28;20266;-80
2023/06/25 05:41:08;;;;;;;5.83;5.23;;;18.30;99.90;;;;;;5045460;28;20177;-78
2023/06/25 05:43:34;;;;;;;6.07;4.60;;;18.40;99.90;;;;;;5041820;28;20200;-78
2023/06/25 05:45:59;;;;;;;4.90;4.50;;;18.50;99.90;;;;;;5035306;28;20189;-80
2023/06/25 05:48:26;;;;;;;4.93;4.53;;;18.60;99.90;;;;;;5052206;28;20173;-78
2023/06/25 05:50:51;;;;;;;4.50;4.10;;;18.70;99.90;;;;;;5040938;28;20180;-78
2023/06/25 05:53:19;;;;;;;4.63;4.20;;;18.90;99.90;;;;;;5035254;28;20238;-78
2023/06/25 05:55:44;;;;;;;5.40;4.90;;;18.90;99.90;;;;;;5034652;28;20224;-79
2023/06/25 05:58:12;;;;;;;4.70;4.40;;;18.80;99.90;;;;;;5035782;28;20227;-79
2023/06/25 06:00:37;;;;;;;5.10;4.70;;;18.80;99.90;;;;;;5017872;28;20177;-80
2023/06/25 06:03:03;;;;;;;4.57;4.17;;;18.80;99.90;;;;;;5034922;28;20168;-79
2023/06/25 06:05:29;;;;;;;4.20;3.90;;;18.80;99.90;;;;;;5034953;28;20222;-79
2023/06/25 06:07:54;;;;;;;4.27;3.97;;;18.90;99.90;;;;;;5037983;28;20260;-79
2023/06/25 06:10:20;;;;;;;5.17;4.77;;;18.90;99.90;;;;;;5016808;28;20188;-80
2023/06/25 06:12:46;;;;;;;4.57;4.27;;;18.90;99.90;;;;;;5034778;28;20173;-78
2023/06/25 06:15:12;;;;;;;6.53;4.00;;;18.90;99.90;;;;;;5022034;28;20275;-78
2023/06/25 06:17:37;;;;;;;4.73;4.37;;;19.00;99.90;;;;;;5035888;28;20182;-79
2023/06/25 06:20:04;;;;;;;4.47;4.17;;;19.10;99.90;;;;;;5021123;28;20565;-79
2023/06/25 06:22:30;;;;;;;4.30;3.90;;;19.30;99.90;;;;;;5028915;28;20177;-79
2023/06/25 06:24:55;;;;;;;5.07;4.67;;;19.50;99.90;;;;;;5042514;28;20180;-79
2023/06/25 06:27:21;;;;;;;4.23;3.83;;;19.70;99.90;;;;;;5034303;28;20173;-78
2023/06/25 06:29:47;;;;;;;4.50;4.20;;;19.80;99.90;;;;;;5051863;28;20172;-79
2023/06/25 06:32:13;;;;;;;4.73;4.33;;;19.80;99.90;;;;;;5038082;28;20538;-80
2023/06/25 06:34:39;;;;;;;4.60;4.20;;;19.80;99.90;;;;;;5033589;28;20193;-79
2023/06/25 06:37:05;;;;;;;4.00;3.80;;;19.70;99.90;;;;;;5015778;28;20207;-81
2023/06/25 06:39:31;;;;;;;4.27;3.87;;;19.90;99.90;;;;;;5015740;28;20215;-80
2023/06/25 06:41:57;;;;;;;3.93;3.63;;;19.90;99.90;;;;;;5040225;28;20196;-80
2023/06/25 06:44:22;;;;;;;4.03;3.83;;;20.00;99.90;;;;;;5017702;28;20267;-78
2023/06/25 06:46:48;;;;;;;3.83;3.63;;;20.10;99.90;;;;;;5033731;28;20530;-79
2023/06/25 06:49:16;;;;;;;4.30;3.90;;;20.30;99.90;;;;;;5033823;28;20607;-79
2023/06/25 06:51:42;;;;;;;4.73;4.37;;;20.40;99.90;;;;;;5039130;28;20177;-80
2023/06/25 06:54:08;;;;;;;4.27;3.97;;;20.40;99.90;;;;;;5037955;28;20220;-78
2023/06/25 06:56:34;;;;;;;4.43;4.13;;;20.40;99.90;;;;;;5032393;28;20168;-78
2023/06/25 06:59:00;;;;;;;5.20;4.17;;;20.40;99.90;;;;;;5032839;28;20281;-79
2023/06/25 07:01:27;;;;;;;4.27;3.97;;;20.40;99.90;;;;;;5033177;28;20227;-78
2023/06/25 07:03:52;;;;;;;4.70;4.30;;;20.50;99.90;;;;;;5032925;28;20256;-81
2023/06/25 07:06:19;;;;;;;4.73;4.33;;;20.70;99.90;;;;;;5032970;28;20199;-78
2023/06/25 07:08:44;;;;;;;4.70;4.30;;;20.70;99.90;;;;;;5032961;28;20682;-78
2023/06/25 07:11:10;;;;;;;4.33;4.03;;;20.60;99.90;;;;;;5032764;28;20168;-78
2023/06/25 07:13:36;;;;;;;5.13;4.27;;;20.60;99.90;;;;;;5015042;28;20192;-78
2023/06/25 07:16:02;;;;;;;4.50;4.10;;;20.80;99.90;;;;;;5033258;28;20361;-78
2023/06/25 07:18:28;;;;;;;4.37;4.07;;;20.90;99.90;;;;;;5022601;28;20208;-80
2023/06/25 07:20:54;;;;;;;4.40;4.07;;;21.00;99.90;;;;;;5046456;28;20195;-78
2023/06/25 07:23:19;;;;;;;4.03;3.73;;;21.20;99.90;;;;;;5018742;28;20589;-79
2023/06/25 07:25:45;;;;;;;6.03;5.53;;;21.40;99.90;;;;;;5016455;28;20181;-79
2023/06/25 07:28:11;;;;;;;5.40;4.90;;;21.60;99.90;;;;;;5032897;28;20173;-79
2023/06/25 07:30:38;;;;;;;4.37;4.00;;;21.80;99.90;;;;;;5013905;28;20173;-81
2023/06/25 07:33:04;;;;;;;4.07;3.77;;;21.80;99.90;;;;;;5032440;28;20184;-81
2023/06/25 07:35:30;;;;;;;3.93;3.70;;;21.70;99.90;;;;;;5033101;28;20183;-77
2023/06/25 07:37:56;;;;;;;4.20;3.90;;;21.80;99.80;;;;;;5032418;28;20270;-79
2023/06/25 07:40:21;;;;;;;4.23;3.93;;;21.60;99.30;;;;;;5014362;28;20181;-79
2023/06/25 07:42:47;;;;;;;4.20;3.90;;;21.30;99.70;;;;;;5032384;28;20268;-78
2023/06/25 07:45:13;;;;;;;4.17;3.87;;;21.30;99.70;;;;;;5032240;28;20172;-78
2023/06/25 07:47:39;;;;;;;6.07;5.00;;;21.40;99.30;;;;;;5040137;28;20180;-80
2023/06/25 07:50:05;;;;;;;4.77;4.13;;;21.50;99.40;;;;;;5032599;28;20172;-79
2023/06/25 07:52:31;;;;;;;4.10;3.90;;;21.60;99.90;;;;;;5032197;28;20183;-78
2023/06/25 07:54:57;;;;;;;4.63;4.27;;;21.70;99.90;;;;;;4970422;28;1180843;-78
2023/06/25 07:57:23;;;;;;;4.20;3.90;;;22.00;99.90;;;;;;5011666;28;20299;-79
2023/06/25 07:59:48;;;;;;;4.70;4.33;;;22.10;99.10;;;;;;5013197;28;20212;-79
2023/06/25 08:02:14;;;;;;;4.70;4.30;;;22.20;99.00;;;;;;5019743;28;20192;-79
2023/06/25 08:04:40;;;;;;;4.20;3.90;;;22.20;98.70;;;;;;5016182;28;20292;-79
2023/06/25 08:07:06;;;;;;;4.57;4.27;;;22.30;98.20;;;;;;5019779;28;20169;-78
2023/06/25 08:09:32;;;;;;;4.37;4.07;;;22.20;98.10;;;;;;5032534;28;20255;-78
2023/06/25 08:11:58;;;;;;;4.60;4.30;;;22.20;98.10;;;;;;5018553;28;20191;-79
2023/06/25 08:14:23;;;;;;;4.90;4.17;;;22.40;98.40;;;;;;5018673;28;20195;-78
2023/06/25 08:16:49;;;;;;;4.80;4.40;;;22.50;98.00;;;;;;5016220;28;20188;-78
2023/06/25 08:19:15;;;;;;;4.38;4.07;;;22.70;97.80;;;;;;5019792;28;20203;-79
2023/06/25 08:21:44;;;;;;;5.22;4.72;;;22.80;98.50;;;;;;5033904;28;20706;-80
2023/06/25 08:24:10;;;;;;;4.35;4.05;;;23.00;99.20;;;;;;5036837;28;20180;-80
2023/06/25 08:26:35;;;;;;;4.75;4.22;;;23.20;99.10;;;;;;5036235;28;20177;-79
2023/06/25 08:29:01;;;;;;;4.78;4.45;;;23.30;98.80;;;;;;5036468;28;20184;-80
2023/06/25 08:31:27;;;;;;;4.80;4.50;;;23.50;98.80;;;;;;5036265;28;20173;-79
2023/06/25 08:33:53;;;;;;;4.40;4.10;;;23.50;98.90;;;;;;5036321;28;20179;-79
2023/06/25 08:36:18;;;;;;;5.20;4.80;;;23.60;98.40;;;;;;5036671;28;20527;-79
2023/06/25 08:38:44;;;;;;;4.82;4.53;;;23.50;98.00;;;;;;5036162;28;20200;-78
2023/06/25 08:41:10;;;;;;;4.82;4.43;;;23.50;98.20;;;;;;5036227;28;20579;-79
2023/06/25 08:43:35;;;;;;;5.57;5.03;;;23.50;98.60;;;;;;5036205;28;20172;-79
2023/06/25 08:46:02;;;;;;;4.88;4.50;;;23.70;98.60;;;;;;5036363;28;20177;-78
2023/06/25 08:48:31;;;;;;;4.47;4.18;;;23.80;97.80;;;;;;5035909;28;20176;-80
2023/06/25 08:51:03;;;;;;;4.78;4.38;;;23.90;96.20;;;;;;5037679;28;20263;-80
2023/06/25 08:53:29;;;;;;;5.20;4.22;;;23.90;96.70;;;;;;5035806;28;20157;-80
2023/06/25 08:55:59;;;;;;;4.60;4.30;;;24.00;95.30;;;;;;5055959;28;20596;-81
2023/06/25 08:58:25;;;;;;;4.90;4.60;;;23.90;95.30;;;;;;5049604;28;20203;-79
2023/06/25 09:00:51;;;;;;;5.20;4.63;;;23.90;95.50;;;;;;5062166;28;20182;-80
2023/06/25 09:03:17;;;;;;;5.75;5.30;;;24.00;95.70;;;;;;5055767;28;20234;-79
2023/06/25 09:05:54;;;;;;;5.03;4.53;;;24.10;95.70;;;;;;5055987;28;20168;-80
2023/06/25 09:08:25;;;;;;;4.65;4.28;;;24.00;95.90;;;;;;5056021;28;20175;-80
2023/06/25 09:10:55;;;;;;;5.05;4.65;;;24.00;95.50;;;;;;5055435;28;20163;-80
2023/06/25 09:13:25;;;;;;;5.00;4.68;;;24.20;95.10;;;;;;5055764;28;20168;-80
2023/06/25 09:15:53;;;;;;;4.88;4.47;;;24.20;95.20;;;;;;5055532;28;20534;-81
2023/06/25 09:18:22;;;;;;;4.88;4.57;;;24.20;94.80;;;;;;5055472;28;20210;-79
2023/06/25 09:20:48;;;;;;;4.68;4.38;;;24.30;95.10;;;;;;5055544;28;20636;-79
2023/06/25 09:23:22;;;;;;;4.70;4.40;;;24.30;94.50;;;;;;5055198;28;20194;-79
2023/06/25 09:25:49;;;;;;;4.80;4.50;;;24.20;94.30;;;;;;5055970;28;20619;-80
2023/06/25 09:28:15;;;;;;;4.95;4.57;;;24.10;94.60;;;;;;5057442;28;20689;-78
2023/06/25 09:30:41;;;;;;;5.55;5.07;;;24.20;95.40;;;;;;5062499;28;20172;-81
2023/06/25 09:33:08;;;;;;;4.88;4.50;;;24.30;95.40;;;;;;5042633;28;20226;-79
2023/06/25 09:35:34;;;;;;;5.45;4.95;;;24.00;94.90;;;;;;5057081;28;20171;-80
2023/06/25 09:38:01;;;;;;;5.00;4.60;;;24.50;93.90;;;;;;5058678;28;20199;-80
2023/06/25 09:40:26;;;;;;;5.18;4.78;;;24.40;94.00;;;;;;5059262;28;20195;-79
2023/06/25 09:42:53;;;;;;;5.22;4.82;;;24.60;94.30;;;;;;5057460;28;20628;-80
2023/06/25 09:45:22;;;;;;;5.35;4.88;;;24.50;94.90;;;;;;5057272;28;20271;-80
2023/06/25 09:47:49;;;;;;;5.35;4.95;;;24.50;94.60;;;;;;5054440;28;20183;-80
2023/06/25 09:50:37;;;;;;;4.90;4.50;;;24.50;93.70;;;;;;5040667;28;20176;-79
2023/06/25 09:53:15;;;;;;;5.25;4.85;;;24.40;93.90;;;;;;5056542;28;20674;-78
2023/06/25 09:55:42;;;;;;;5.43;4.78;;;24.30;94.10;;;;;;5056120;28;20227;-79
2023/06/25 09:58:09;;;;;;;5.35;4.93;;;24.30;93.60;;;;;;5045151;28;20203;-80
2023/06/25 10:00:37;;;;;;;5.20;4.80;;;24.20;93.60;;;;;;5069245;28;20172;-79
2023/06/25 10:03:03;;;;;;;5.30;4.80;;;24.10;93.70;;;;;;5040450;28;20171;-79
2023/06/25 10:05:30;;;;;;;5.45;5.07;;;24.10;94.00;;;;;;5037975;28;20176;-78
2023/06/25 10:07:59;;;;;;;6.05;5.45;;;24.10;93.60;;;;;;5055687;28;20175;-80
2023/06/25 10:10:29;;;;;;;5.22;4.82;;;24.20;93.50;;;;;;5037150;28;20175;-78
2023/06/25 10:12:55;;;;;;;5.43;4.93;;;24.30;93.50;;;;;;5057060;28;20659;-79
2023/06/25 10:15:32;;;;;;;5.72;5.15;;;24.30;93.80;;;;;;5055359;28;20189;-79
2023/06/25 10:18:00;;;;;;;6.03;5.18;;;24.40;95.20;;;;;;5055172;28;20191;-77
2023/06/25 10:20:31;;;;;;;5.45;5.05;;;24.60;94.80;;;;;;5036590;28;20176;-78
2023/06/25 10:23:11;;;;;;;6.03;5.43;;;24.50;94.20;;;;;;5036574;28;20175;-78
2023/06/25 10:25:39;;;;;;;5.28;4.88;;;24.60;95.10;;;;;;5054743;28;20195;-80
2023/06/25 10:28:17;;;;;;;5.70;5.30;;;24.60;95.20;;;;;;5058505;28;20201;-80
2023/06/25 10:30:47;;;;;;;5.78;5.30;;;24.80;95.80;;;;;;5057537;28;20172;-81
2023/06/25 10:33:15;;;;;;;5.80;5.30;;;24.80;93.80;;;;;;5057692;28;20176;-79
2023/06/25 10:35:43;;;;;;;5.53;5.05;;;24.90;93.20;;;;;;5039783;28;20717;-78
2023/06/25 10:38:09;;;;;;;5.20;4.80;;;24.90;93.50;;;;;;5056739;28;20277;-77
2023/06/25 10:40:41;;;;;;;6.13;5.53;;;24.80;92.90;;;;;;5064655;28;20155;-79
2023/06/25 10:43:15;;;;;;;5.55;5.05;;;24.80;93.00;;;;;;5050469;28;20164;-80
2023/06/25 10:45:48;;;;;;;6.07;5.57;;;24.70;93.10;;;;;;5044089;28;20264;-77
2023/06/25 10:48:14;;;;;;;5.82;5.32;;;24.80;94.20;;;;;;5056918;28;20263;-78
2023/06/25 10:50:39;;;;;;;5.65;5.25;;;24.90;94.80;;;;;;5057597;28;20175;-79
2023/06/25 10:53:16;;;;;;;5.75;5.15;;;25.00;94.60;;;;;;5057360;28;20164;-78
2023/06/25 10:55:53;;;;;;;5.70;5.20;;;25.10;93.00;;;;;;5057171;28;20238;-77
2023/06/25 10:58:24;;;;;;;5.68;5.18;;;25.00;93.50;;;;;;5059437;28;20203;-78
2023/06/25 11:00:57;;;;;;;5.88;5.38;;;25.10;94.60;;;;;;5054686;28;20196;-78
2023/06/25 11:03:24;;;;;;;5.85;5.38;;;25.20;93.60;;;;;;5046474;28;20172;-79
2023/06/25 11:05:50;;;;;;;5.63;5.22;;;25.20;93.80;;;;;;5060061;28;20196;-78
2023/06/25 11:08:16;;;;;;;6.07;5.55;;;25.30;93.40;;;;;;5053045;28;20171;-77
2023/06/25 11:10:43;;;;;;;6.43;5.65;;;25.30;92.80;;;;;;5056808;28;20165;-77
2023/06/25 11:13:10;;;;;;;6.28;5.78;;;25.30;92.70;;;;;;5055269;28;20191;-77
2023/06/25 11:15:37;;;;;;;5.88;5.47;;;25.30;93.10;;;;;;5051208;28;20194;-79
2023/06/25 11:18:09;;;;;;;5.90;5.40;;;25.30;93.70;;;;;;5047562;28;20597;-79
2023/06/25 11:20:39;;;;;;;6.00;5.50;;;25.30;92.70;;;;;;5052088;28;20198;-79
2023/06/25 11:23:05;;;;;;;6.43;5.82;;;25.20;92.90;;;;;;5068714;28;20168;-80
2023/06/25 11:25:31;;;;;;;5.70;5.30;;;25.30;94.20;;;;;;5067481;28;20190;-81
2023/06/25 11:28:02;;;;;;;6.25;5.63;;;25.50;93.70;;;;;;5068431;28;20178;-82
2023/06/25 11:30:29;;;;;;;6.30;5.80;;;25.60;92.30;;;;;;5043973;28;20191;-78
2023/06/25 11:32:55;;;;;;;5.78;5.28;;;25.40;91.70;;;;;;5057521;28;20167;-79
2023/06/25 11:35:24;;;;;;;6.32;5.82;;;25.40;92.30;;;;;;5055835;28;20202;-82
2023/06/25 11:37:50;;;;;;;6.30;5.80;;;25.40;92.30;;;;;;5057287;28;20164;-81
2023/06/25 11:40:27;;;;;;;5.75;5.25;;;25.20;92.10;;;;;;5063923;28;20186;-81
2023/06/25 11:42:53;;;;;;;6.30;5.80;;;25.20;92.70;;;;;;5062231;28;20166;-80
2023/06/25 11:45:20;;;;;;;7.90;7.20;;;25.50;93.00;;;;;;5057662;28;20243;-79
2023/06/25 11:47:53;;;;;;;6.60;6.00;;;25.60;93.00;;;;;;5071129;28;20247;-80
2023/06/25 11:50:24;;;;;;;5.93;5.43;;;25.60;93.10;;;;;;5057392;28;20172;-79
2023/06/25 11:52:55;;;;;;;5.38;4.97;;;25.80;93.70;;;;;;5046913;28;20392;-79
2023/06/25 11:55:21;;;;;;;6.28;5.68;;;26.00;93.10;;;;;;5050138;28;20706;-79
2023/06/25 11:57:48;;;;;;;5.68;5.22;;;26.20;92.00;;;;;;5055194;28;20175;-77
2023/06/25 12:00:14;;;;;;;6.47;5.88;;;26.20;92.00;;;;;;5053367;28;20593;-79
2023/06/25 12:02:40;;;;;;;5.97;5.50;;;26.30;91.50;;;;;;5053441;28;20164;-79
2023/06/25 12:05:06;;;;;;;7.15;5.60;;;26.40;91.90;;;;;;5056484;28;20194;-79
2023/06/25 12:07:32;;;;;;;6.00;5.40;;;26.40;91.40;;;;;;5053562;28;20180;-80
2023/06/25 12:09:58;;;;;;;5.82;5.32;;;26.50;91.00;;;;;;5036740;28;20176;-79
2023/06/25 12:12:24;;;;;;;6.20;5.72;;;26.30;90.90;;;;;;5049500;28;20626;-77
2023/06/25 12:14:50;;;;;;;5.97;5.47;;;26.30;91.20;;;;;;5032421;28;20211;-79
2023/06/25 12:17:15;;;;;;;6.15;5.55;;;26.50;91.40;;;;;;5033305;28;20196;-79
2023/06/25 12:19:42;;;;;;;5.80;5.40;;;26.70;92.10;;;;;;5015235;28;20212;-80
2023/06/25 12:22:09;;;;;;;5.72;4.80;;;26.70;91.80;;;;;;5015320;28;20264;-79
2023/06/25 12:24:35;;;;;;;6.05;5.55;;;26.80;92.00;;;;;;5031966;28;20184;-79
2023/06/25 12:27:01;;;;;;;6.05;5.47;;;26.90;91.80;;;;;;5033066;28;20169;-79
2023/06/25 12:29:27;;;;;;;6.28;5.68;;;26.80;92.00;;;;;;5037102;28;20168;-80
2023/06/25 12:31:52;;;;;;;5.97;5.47;;;26.60;91.40;;;;;;5035521;28;20256;-78
2023/06/25 12:34:18;;;;;;;6.13;5.63;;;26.50;91.50;;;;;;5032770;28;20190;-78
2023/06/25 12:36:44;;;;;;;6.40;5.90;;;26.60;91.50;;;;;;5032908;28;20659;-78
2023/06/25 12:39:10;;;;;;;6.00;5.60;;;26.50;91.60;;;;;;5032918;28;20212;-79
2023/06/25 12:41:35;;;;;;;6.35;5.88;;;26.40;91.30;;;;;;5034812;28;20191;-77
2023/06/25 12:44:01;;;;;;;5.95;5.47;;;26.30;91.60;;;;;;5024414;28;20204;-82
2023/06/25 12:46:27;;;;;;;6.38;5.78;;;26.30;92.40;;;;;;5028335;28;20177;-79